createdAt,value
2022-11-16T00:00:29.858Z,96583.75
2022-11-16T00:01:33.159Z,96588.66
2022-11-16T00:02:34.877Z,96581.41
2022-11-16T00:03:36.684Z,96584.53
2022-11-16T00:04:38.470Z,96581.19
2022-11-16T00:05:40.155Z,96576.31
2022-11-16T00:06:41.813Z,96576.44
2022-11-16T00:07:43.311Z,96575.63
2022-11-16T00:09:07.191Z,96577.63
2022-11-16T00:10:09.215Z,96581.28
2022-11-16T00:11:16.372Z,96585.66
2022-11-16T00:12:17.891Z,96578.53
2022-11-16T00:13:19.803Z,96579.41
2022-11-16T00:14:23.953Z,96580.53
2022-11-16T00:15:25.466Z,96579.41
2022-11-16T00:16:27.139Z,96571.84
2022-11-16T00:17:28.702Z,96574.22
2022-11-16T00:18:31.102Z,96574.53
2022-11-16T00:19:32.857Z,96573.44
2022-11-16T00:20:34.407Z,96572.75
2022-11-16T00:21:35.990Z,96570.53
2022-11-16T00:22:37.552Z,96579.00
2022-11-16T00:23:39.276Z,96576.00
2022-11-16T00:24:40.940Z,96569.88
2022-11-16T00:25:42.488Z,96575.22
2022-11-16T00:26:44.556Z,96566.09
2022-11-16T00:27:46.110Z,96571.13
2022-11-16T00:28:48.686Z,96573.00
2022-11-16T00:29:50.241Z,96573.00
2022-11-16T00:31:01.635Z,96563.63
2022-11-16T00:32:03.238Z,96573.53
2022-11-16T00:33:06.502Z,96571.84
2022-11-16T00:34:08.191Z,96570.75
2022-11-16T00:35:09.859Z,96571.06
2022-11-16T00:36:13.037Z,96570.28
2022-11-16T00:37:14.614Z,96574.84
2022-11-16T00:38:16.200Z,96564.94
2022-11-16T00:39:18.886Z,96562.72
2022-11-16T00:40:20.450Z,96564.25
2022-11-16T00:41:22.033Z,96560.47
2022-11-16T00:42:23.627Z,96563.63
2022-11-16T00:43:25.633Z,96560.94
2022-11-16T00:44:27.245Z,96552.13
2022-11-16T00:45:28.752Z,96556.38
2022-11-16T00:46:30.263Z,96559.84
2022-11-16T00:47:31.761Z,96559.84
2022-11-16T00:48:33.687Z,96567.50
2022-11-16T00:49:35.419Z,96566.72
2022-11-16T00:50:37.515Z,96569.88
2022-11-16T00:51:39.061Z,96572.09
2022-11-16T00:52:40.582Z,96568.28
2022-11-16T00:53:42.122Z,96571.31
2022-11-16T00:54:43.663Z,96565.03
2022-11-16T00:55:46.618Z,96565.03
2022-11-16T00:56:48.248Z,96558.81
2022-11-16T00:57:49.981Z,96556.44
2022-11-16T00:58:51.570Z,96557.31
2022-11-16T00:59:53.141Z,96553.56
2022-11-16T01:00:55.044Z,96555.84
2022-11-16T01:01:56.614Z,96558.78
2022-11-16T01:02:58.186Z,96557.88
2022-11-16T01:03:59.763Z,96562.91
2022-11-16T01:05:01.319Z,96563.47
2022-11-16T01:06:05.383Z,96560.47
2022-11-16T01:07:06.982Z,96572.34
2022-11-16T01:08:08.575Z,96561.53
2022-11-16T01:09:10.103Z,96556.88
2022-11-16T01:10:13.648Z,96556.56
2022-11-16T01:11:34.847Z,96542.66
2022-11-16T01:12:36.607Z,96551.59
2022-11-16T01:13:38.150Z,96547.75
2022-11-16T01:14:46.229Z,96545.19
2022-11-16T01:15:48.560Z,96545.38
2022-11-16T01:16:51.072Z,96546.16
2022-11-16T01:17:54.589Z,96550.53
2022-11-16T01:18:56.506Z,96552.19
2022-11-16T01:19:58.068Z,96546.97
2022-11-16T01:20:59.630Z,96543.03
2022-11-16T01:22:01.347Z,96531.41
2022-11-16T01:23:02.924Z,96535.28
2022-11-16T01:24:04.791Z,96535.94
2022-11-16T01:25:07.618Z,96537.66
2022-11-16T01:26:09.366Z,96532.25
2022-11-16T01:27:10.919Z,96538.97
2022-11-16T01:28:12.454Z,96541.75
2022-11-16T01:29:14.027Z,96543.75
2022-11-16T01:30:15.985Z,96542.97
2022-11-16T01:31:17.887Z,96543.22
2022-11-16T01:32:19.427Z,96543.50
2022-11-16T01:33:21.501Z,96541.94
2022-11-16T01:34:23.673Z,96537.25
2022-11-16T01:35:25.190Z,96547.00
2022-11-16T01:36:26.772Z,96533.84
2022-11-16T01:37:29.984Z,96536.69
2022-11-16T01:38:32.555Z,96535.13
2022-11-16T01:39:34.376Z,96535.13
2022-11-16T01:40:37.609Z,96529.91
2022-11-16T01:41:41.156Z,96531.59
2022-11-16T01:42:42.747Z,96535.19
2022-11-16T01:44:05.786Z,96530.81
2022-11-16T01:45:23.423Z,96532.84
2022-11-16T01:46:26.693Z,96530.63
2022-11-16T01:47:29.163Z,96529.50
2022-11-16T01:48:31.317Z,96525.72
2022-11-16T01:49:37.696Z,96533.09
2022-11-16T01:50:39.717Z,96524.75
2022-11-16T01:51:45.995Z,96527.09
2022-11-16T01:53:02.021Z,96528.00
2022-11-16T01:54:07.246Z,96536.19
2022-11-16T01:55:09.867Z,96535.84
2022-11-16T01:56:11.541Z,96528.28
2022-11-16T01:57:18.262Z,96531.41
2022-11-16T01:58:23.259Z,96528.09
2022-11-16T01:59:25.081Z,96523.19
2022-11-16T02:00:26.772Z,96522.53
2022-11-16T02:01:28.441Z,96519.41
2022-11-16T02:02:30.030Z,96513.81
2022-11-16T02:03:31.555Z,96522.03
2022-11-16T02:04:33.151Z,96526.03
2022-11-16T02:05:50.929Z,96513.09
2022-11-16T02:07:23.489Z,96521.69
2022-11-16T02:09:30.125Z,96524.41
2022-11-16T02:10:55.481Z,96512.94
2022-11-16T02:12:03.065Z,96520.97
2022-11-16T02:13:20.086Z,96520.66
2022-11-16T02:14:29.349Z,96516.16
2022-11-16T02:15:58.601Z,96513.31
2022-11-16T02:17:20.357Z,96513.31
2022-11-16T02:18:35.696Z,96516.72
2022-11-16T02:19:59.036Z,96515.69
2022-11-16T02:21:19.082Z,96520.03
2022-11-16T02:22:29.921Z,96524.06
2022-11-16T02:24:05.341Z,96513.66
2022-11-16T02:25:21.206Z,96517.72
2022-11-16T02:26:36.581Z,96508.59
2022-11-16T02:27:56.264Z,96509.88
2022-11-16T02:29:16.147Z,96505.44
2022-11-16T02:30:20.248Z,96511.28
2022-11-16T02:31:30.743Z,96508.72
2022-11-16T02:32:39.875Z,96507.28
2022-11-16T02:33:44.250Z,96508.19
2022-11-16T02:34:50.298Z,96502.97
2022-11-16T02:35:56.406Z,96502.66
2022-11-16T02:36:59.398Z,96493.97
2022-11-16T02:38:07.918Z,96499.47
2022-11-16T02:39:14.766Z,96488.44
2022-11-16T02:40:20.271Z,96496.84
2022-11-16T02:41:24.048Z,96495.31
2022-11-16T02:42:34.248Z,96495.31
2022-11-16T02:43:41.145Z,96497.78
2022-11-16T02:44:47.192Z,96499.13
2022-11-16T02:45:54.023Z,96492.03
2022-11-16T02:46:59.795Z,96493.19
2022-11-16T02:48:07.279Z,96493.31
2022-11-16T02:49:15.056Z,96491.88
2022-11-16T02:50:19.677Z,96487.50
2022-11-16T02:51:24.064Z,96484.13
2022-11-16T02:52:28.574Z,96477.09
2022-11-16T02:53:39.416Z,96482.00
2022-11-16T02:54:40.964Z,96478.88
2022-11-16T02:55:42.479Z,96477.31
2022-11-16T02:57:04.857Z,96474.63
2022-11-16T02:58:09.784Z,96483.84
2022-11-16T02:59:16.480Z,96486.56
2022-11-16T03:00:24.880Z,96485.22
2022-11-16T03:01:36.815Z,96486.94
2022-11-16T03:02:54.231Z,96486.69
2022-11-16T03:04:05.910Z,96488.44
2022-11-16T03:05:15.488Z,96483.53
2022-11-16T03:06:22.371Z,96494.88
2022-11-16T03:07:29.208Z,96483.13
2022-11-16T03:08:35.161Z,96485.59
2022-11-16T03:09:38.927Z,96481.53
2022-11-16T03:11:02.158Z,96484.59
2022-11-16T03:12:11.039Z,96483.13
2022-11-16T03:13:15.329Z,96487.72
2022-11-16T03:14:20.604Z,96484.88
2022-11-16T03:15:22.707Z,96491.78
2022-11-16T03:16:32.990Z,96497.91
2022-11-16T03:17:40.403Z,96499.97
2022-11-16T03:18:46.213Z,96496.53
2022-11-16T03:20:05.152Z,96496.69
2022-11-16T03:21:31.718Z,96500.59
2022-11-16T03:22:43.627Z,96498.28
2022-11-16T03:23:46.062Z,96501.13
2022-11-16T03:24:47.825Z,96498.44
2022-11-16T03:25:52.668Z,96502.84
2022-11-16T03:27:07.242Z,96501.94
2022-11-16T03:28:21.302Z,96500.81
2022-11-16T03:29:50.225Z,96492.19
2022-11-16T03:31:08.355Z,96488.44
2022-11-16T03:32:28.654Z,96485.16
2022-11-16T03:34:02.942Z,96485.78
2022-11-16T03:35:13.777Z,96485.78
2022-11-16T03:36:27.676Z,96485.31
2022-11-16T03:37:31.312Z,96484.53
2022-11-16T03:38:36.747Z,96480.78
2022-11-16T03:39:39.632Z,96474.31
2022-11-16T03:40:43.223Z,96479.81
2022-11-16T03:41:47.385Z,96470.91
2022-11-16T03:42:50.004Z,96470.91
2022-11-16T03:43:52.947Z,96467.94
2022-11-16T03:44:55.832Z,96458.50
2022-11-16T03:45:58.231Z,96460.72
2022-11-16T03:46:59.853Z,96455.81
2022-11-16T03:48:01.436Z,96465.88
2022-11-16T03:49:03.034Z,96463.66
2022-11-16T03:50:04.960Z,96462.25
2022-11-16T03:51:09.066Z,96458.63
2022-11-16T03:52:10.937Z,96460.44
2022-11-16T03:53:12.534Z,96455.53
2022-11-16T03:54:14.039Z,96458.81
2022-11-16T03:55:16.042Z,96462.25
2022-11-16T03:56:17.626Z,96454.97
2022-11-16T03:57:19.243Z,96457.56
2022-11-16T03:58:20.809Z,96463.19
2022-11-16T03:59:22.446Z,96459.56
2022-11-16T04:00:23.978Z,96457.13
2022-11-16T04:01:25.579Z,96453.97
2022-11-16T04:02:27.163Z,96459.25
2022-11-16T04:03:28.671Z,96445.25
2022-11-16T04:04:49.091Z,96447.91
2022-11-16T04:06:09.270Z,96445.91
2022-11-16T04:07:29.497Z,96448.09
2022-11-16T04:08:49.245Z,96442.75
2022-11-16T04:10:09.038Z,96439.97
2022-11-16T04:11:35.381Z,96440.47
2022-11-16T04:13:02.885Z,96442.25
2022-11-16T04:14:23.620Z,96439.09
2022-11-16T04:15:43.573Z,96439.19
2022-11-16T04:17:03.283Z,96432.78
2022-11-16T04:18:23.703Z,96436.00
2022-11-16T04:19:43.907Z,96435.59
2022-11-16T04:21:04.324Z,96432.72
2022-11-16T04:22:33.091Z,96432.09
2022-11-16T04:23:53.494Z,96430.50
2022-11-16T04:24:59.838Z,96425.16
2022-11-16T04:26:01.408Z,96419.38
2022-11-16T04:27:24.491Z,96423.81
2022-11-16T04:28:31.753Z,96418.94
2022-11-16T04:29:34.547Z,96420.50
2022-11-16T04:30:54.340Z,96425.63
2022-11-16T04:32:15.712Z,96422.75
2022-11-16T04:33:35.972Z,96421.75
2022-11-16T04:34:55.794Z,96425.66
2022-11-16T04:36:20.451Z,96420.97
2022-11-16T04:37:40.776Z,96422.50
2022-11-16T04:38:42.287Z,96426.88
2022-11-16T04:39:43.850Z,96418.44
2022-11-16T04:40:45.427Z,96411.75
2022-11-16T04:42:05.442Z,96416.25
2022-11-16T04:43:07.447Z,96415.38
2022-11-16T04:44:09.161Z,96410.03
2022-11-16T04:45:29.375Z,96409.03
2022-11-16T04:46:49.471Z,96412.09
2022-11-16T04:47:51.842Z,96406.56
2022-11-16T04:48:53.467Z,96406.81
2022-11-16T04:49:55.049Z,96405.78
2022-11-16T04:50:56.591Z,96410.44
2022-11-16T04:51:58.386Z,96414.50
2022-11-16T04:53:00.094Z,96406.41
2022-11-16T04:54:04.160Z,96408.88
2022-11-16T04:55:06.150Z,96404.88
2022-11-16T04:56:07.903Z,96409.41
2022-11-16T04:57:09.533Z,96406.28
2022-11-16T04:58:11.167Z,96409.28
2022-11-16T04:59:12.866Z,96408.88
2022-11-16T05:00:18.163Z,96417.44
2022-11-16T05:01:39.930Z,96408.63
2022-11-16T05:02:42.065Z,96405.00
2022-11-16T05:03:44.013Z,96406.09
2022-11-16T05:04:45.665Z,96402.19
2022-11-16T05:05:49.906Z,96409.88
2022-11-16T05:06:52.082Z,96399.53
2022-11-16T05:07:53.747Z,96411.13
2022-11-16T05:08:55.344Z,96398.41
2022-11-16T05:09:56.934Z,96405.66
2022-11-16T05:10:58.517Z,96399.19
2022-11-16T05:12:00.178Z,96397.84
2022-11-16T05:13:01.671Z,96406.47
2022-11-16T05:14:03.231Z,96403.69
2022-11-16T05:15:06.483Z,96404.59
2022-11-16T05:16:08.409Z,96399.53
2022-11-16T05:17:10.003Z,96391.75
2022-11-16T05:18:11.813Z,96406.47
2022-11-16T05:19:33.355Z,96398.75
2022-11-16T05:20:53.969Z,96400.53
2022-11-16T05:21:55.503Z,96408.19
2022-11-16T05:22:58.601Z,96406.09
2022-11-16T05:24:18.579Z,96401.31
2022-11-16T05:25:20.099Z,96401.59
2022-11-16T05:26:21.695Z,96404.06
2022-11-16T05:27:24.372Z,96399.59
2022-11-16T05:28:25.986Z,96397.03
2022-11-16T05:29:27.674Z,96401.41
2022-11-16T05:30:29.769Z,96396.94
2022-11-16T05:31:35.047Z,96399.41
2022-11-16T05:32:39.234Z,96404.09
2022-11-16T05:33:40.856Z,96405.78
2022-11-16T05:34:42.531Z,96399.75
2022-11-16T05:35:44.035Z,96396.13
2022-11-16T05:36:45.544Z,96400.00
2022-11-16T05:37:47.106Z,96402.13
2022-11-16T05:38:51.583Z,96401.91
2022-11-16T05:39:57.214Z,96398.13
2022-11-16T05:40:58.743Z,96400.81
2022-11-16T05:42:00.394Z,96401.69
2022-11-16T05:43:01.945Z,96392.56
2022-11-16T05:44:03.828Z,96397.91
2022-11-16T05:45:05.974Z,96399.47
2022-11-16T05:46:07.606Z,96398.69
2022-11-16T05:47:09.206Z,96390.19
2022-11-16T05:48:10.817Z,96392.56
2022-11-16T05:49:13.004Z,96388.31
2022-11-16T05:50:14.791Z,96389.41
2022-11-16T05:51:16.407Z,96391.66
2022-11-16T05:52:18.205Z,96391.31
2022-11-16T05:53:19.782Z,96386.06
2022-11-16T05:54:24.825Z,96393.09
2022-11-16T05:55:26.457Z,96394.56
2022-11-16T05:56:28.133Z,96399.00
2022-11-16T05:57:29.684Z,96390.53
2022-11-16T05:58:31.366Z,96397.44
2022-11-16T05:59:33.182Z,96391.75
2022-11-16T06:00:34.724Z,96403.69
2022-11-16T06:01:36.311Z,96394.19
2022-11-16T06:02:37.892Z,96392.44
2022-11-16T06:03:39.474Z,96397.13
2022-11-16T06:04:41.107Z,96393.22
2022-11-16T06:05:42.813Z,96391.19
2022-11-16T06:06:44.402Z,96391.53
2022-11-16T06:07:46.002Z,96393.22
2022-11-16T06:08:47.587Z,96392.56
2022-11-16T06:09:49.164Z,96397.69
2022-11-16T06:10:51.163Z,96394.31
2022-11-16T06:11:52.727Z,96394.56
2022-11-16T06:12:54.388Z,96394.56
2022-11-16T06:13:55.926Z,96389.69
2022-11-16T06:14:57.466Z,96394.25
2022-11-16T06:16:00.248Z,96395.59
2022-11-16T06:17:01.755Z,96394.81
2022-11-16T06:18:03.388Z,96395.22
2022-11-16T06:19:04.943Z,96394.91
2022-11-16T06:20:07.889Z,96397.25
2022-11-16T06:21:10.728Z,96393.44
2022-11-16T06:22:12.290Z,96395.25
2022-11-16T06:23:14.260Z,96391.78
2022-11-16T06:24:15.983Z,96392.66
2022-11-16T06:25:17.485Z,96390.97
2022-11-16T06:26:19.023Z,96395.75
2022-11-16T06:27:20.557Z,96389.41
2022-11-16T06:28:23.160Z,96385.19
2022-11-16T06:29:24.772Z,96381.84
2022-11-16T06:30:26.512Z,96391.44
2022-11-16T06:31:28.046Z,96385.41
2022-11-16T06:32:30.036Z,96386.66
2022-11-16T06:33:33.732Z,96385.63
2022-11-16T06:34:35.632Z,96386.31
2022-11-16T06:35:37.245Z,96387.97
2022-11-16T06:36:38.870Z,96386.66
2022-11-16T06:37:40.528Z,96391.00
2022-11-16T06:38:42.326Z,96383.41
2022-11-16T06:39:43.907Z,96384.75
2022-11-16T06:40:49.751Z,96387.09
2022-11-16T06:41:51.343Z,96382.97
2022-11-16T06:42:52.952Z,96385.00
2022-11-16T06:43:54.586Z,96386.56
2022-11-16T06:44:56.714Z,96393.56
2022-11-16T06:45:58.598Z,96391.47
2022-11-16T06:47:00.393Z,96395.66
2022-11-16T06:48:01.906Z,96390.00
2022-11-16T06:49:03.495Z,96390.78
2022-11-16T06:50:05.536Z,96392.34
2022-11-16T06:51:07.076Z,96383.19
2022-11-16T06:52:08.574Z,96391.00
2022-11-16T06:54:37.943Z,96395.34
2022-11-16T06:55:39.602Z,96385.75
2022-11-16T06:56:41.238Z,96391.66
2022-11-16T06:57:42.783Z,96387.19
2022-11-16T06:58:44.420Z,96389.63
2022-11-16T06:59:45.965Z,96393.66
2022-11-16T07:00:47.663Z,96389.22
2022-11-16T07:01:49.375Z,96383.63
2022-11-16T07:02:50.956Z,96384.16
2022-11-16T07:03:52.629Z,96390.41
2022-11-16T07:04:56.118Z,96384.03
2022-11-16T07:05:59.618Z,96378.00
2022-11-16T07:07:01.229Z,96380.66
2022-11-16T07:08:02.956Z,96378.44
2022-11-16T07:09:08.063Z,96382.44
2022-11-16T07:10:10.365Z,96380.31
2022-11-16T07:11:11.894Z,96377.72
2022-11-16T07:12:13.465Z,96380.50
2022-11-16T07:13:15.006Z,96375.25
2022-11-16T07:14:17.557Z,96381.53
2022-11-16T07:15:19.554Z,96380.03
2022-11-16T07:16:21.438Z,96382.41
2022-11-16T07:17:23.015Z,96377.47
2022-11-16T07:18:24.557Z,96383.28
2022-11-16T07:19:26.056Z,96382.41
2022-11-16T07:20:27.664Z,96383.50
2022-11-16T07:21:29.577Z,96384.28
2022-11-16T07:22:32.788Z,96379.28
2022-11-16T07:23:40.038Z,96379.97
2022-11-16T07:24:41.576Z,96375.06
2022-11-16T07:25:46.705Z,96372.78
2022-11-16T07:26:48.306Z,96373.56
2022-11-16T07:27:49.902Z,96372.59
2022-11-16T07:28:51.408Z,96364.22
2022-11-16T07:29:52.999Z,96358.88
2022-11-16T07:30:54.569Z,96362.78
2022-11-16T07:31:56.164Z,96365.69
2022-11-16T07:33:54.072Z,96370.16
2022-11-16T07:35:51.933Z,96364.03
2022-11-16T07:37:49.931Z,96364.13
2022-11-16T07:39:51.886Z,96375.06
2022-11-16T07:41:46.718Z,96373.03
2022-11-16T07:44:01.317Z,96372.78
2022-11-16T07:46:21.401Z,96371.75
2022-11-16T07:47:58.196Z,96374.72
2022-11-16T07:49:50.778Z,96369.38
2022-11-16T07:51:36.033Z,96356.63
2022-11-16T07:57:57.896Z,96360.28
2022-11-16T08:01:57.313Z,96360.09
2022-11-16T08:24:20.910Z,96340.66
2022-11-16T08:26:09.495Z,96341.50
2022-11-16T08:27:46.044Z,96342.75
2022-11-16T08:31:21.188Z,96335.06
2022-11-16T08:33:29.435Z,96340.50
2022-11-16T08:35:40.157Z,96332.88
2022-11-16T08:46:24.278Z,96306.97
2022-11-16T08:48:04.694Z,96301.41
2022-11-16T08:49:24.463Z,96288.84
2022-11-16T08:51:16.869Z,96299.59
2022-11-16T08:52:53.803Z,96294.91
2022-11-16T08:54:38.513Z,96298.31
2022-11-16T09:00:38.585Z,96282.63
2022-11-16T09:03:01.285Z,96281.75
2022-11-16T09:13:48.317Z,96276.78
2022-11-16T09:24:27.072Z,96265.22
2022-11-16T09:32:46.197Z,96245.59
2022-11-16T09:37:16.357Z,96238.63
2022-11-16T09:44:02.561Z,96231.34
2022-11-16T09:46:11.503Z,96229.63
2022-11-16T09:48:22.075Z,96218.50
2022-11-16T09:50:19.975Z,96226.59
2022-11-16T09:53:03.579Z,96219.00
2022-11-16T09:56:38.354Z,96207.09
2022-11-16T09:58:13.032Z,96206.44
2022-11-16T10:05:42.566Z,96193.69
2022-11-16T10:07:41.838Z,96195.06
2022-11-16T10:16:05.766Z,96182.34
2022-11-16T10:20:06.538Z,96156.91
2022-11-16T10:21:46.266Z,96162.28
2022-11-16T10:24:02.627Z,96157.06
2022-11-16T10:27:52.111Z,96153.38
2022-11-16T10:32:04.843Z,96144.16
2022-11-16T10:34:09.995Z,96149.31
2022-11-16T10:38:36.527Z,96132.09
2022-11-16T10:40:25.471Z,96134.44
2022-11-16T10:42:27.494Z,96131.28
2022-11-16T10:50:54.668Z,96119.00
2022-11-16T10:52:27.096Z,96125.19
2022-11-16T10:54:19.947Z,96123.56
2022-11-16T10:56:17.452Z,96120.53
2022-11-16T10:58:27.471Z,96116.06
2022-11-16T11:00:36.623Z,96111.78
2022-11-16T11:18:07.013Z,96073.56
2022-11-16T11:19:18.628Z,96076.34
2022-11-16T11:20:24.233Z,96073.69
2022-11-16T11:21:27.738Z,96072.16
2022-11-16T11:22:30.856Z,96066.38
2022-11-16T11:23:45.403Z,96061.69
2022-11-16T11:24:48.710Z,96074.38
2022-11-16T11:25:55.284Z,96062.06
2022-11-16T11:27:03.329Z,96054.44
2022-11-16T11:28:19.480Z,96050.44
2022-11-16T11:29:28.466Z,96055.03
2022-11-16T11:30:30.187Z,96054.97
2022-11-16T11:31:44.368Z,96052.69
2022-11-16T11:32:46.697Z,96052.78
2022-11-16T11:34:03.264Z,96050.94
2022-11-16T11:35:06.598Z,96059.50
2022-11-16T11:36:20.763Z,96053.41
2022-11-16T11:37:36.035Z,96050.78
2022-11-16T11:39:03.469Z,96049.22
2022-11-16T11:40:29.129Z,96046.13
2022-11-16T11:41:37.107Z,96048.06
2022-11-16T11:42:44.044Z,96043.13
2022-11-16T11:44:02.654Z,96040.81
2022-11-16T11:45:08.448Z,96038.53
2022-11-16T11:46:19.031Z,96034.63
2022-11-16T11:49:03.936Z,96038.81
2022-11-16T11:50:19.735Z,96038.44
2022-11-16T11:51:25.432Z,96030.72
2022-11-16T11:52:37.856Z,96038.47
2022-11-16T11:53:57.715Z,96028.50
2022-11-16T11:55:01.440Z,96038.09
2022-11-16T11:56:03.160Z,96041.97
2022-11-16T11:57:11.518Z,96037.78
2022-11-16T11:58:19.332Z,96036.97
2022-11-16T11:59:25.127Z,96032.28
2022-11-16T12:00:26.809Z,96028.38
2022-11-16T12:01:53.164Z,96025.31
2022-11-16T12:03:23.952Z,96019.16
2022-11-16T12:04:47.498Z,96018.34
2022-11-16T12:06:29.247Z,96019.88
2022-11-16T12:07:55.271Z,96016.06
2022-11-16T12:09:33.343Z,96017.59
2022-11-16T12:11:01.444Z,96011.34
2022-11-16T12:12:14.631Z,96014.09
2022-11-16T12:13:53.567Z,96013.03
2022-11-16T12:15:06.828Z,96014.19
2022-11-16T12:16:37.633Z,96010.72
2022-11-16T12:17:45.417Z,95995.41
2022-11-16T12:19:33.522Z,95996.97
2022-11-16T12:21:13.899Z,95999.38
2022-11-16T12:22:54.127Z,96001.69
2022-11-16T12:24:07.130Z,95998.56
2022-11-16T12:25:39.829Z,95996.97
2022-11-16T12:26:53.256Z,95994.69
2022-11-16T12:28:25.679Z,95993.91
2022-11-16T12:29:27.231Z,95991.91
2022-11-16T12:30:30.055Z,95986.84
2022-11-16T12:31:52.951Z,95982.97
2022-11-16T12:33:12.007Z,95984.09
2022-11-16T12:34:38.232Z,95985.22
2022-11-16T12:35:49.004Z,95979.84
2022-11-16T12:37:16.970Z,95980.59
2022-11-16T12:38:28.471Z,95977.47
2022-11-16T12:39:56.473Z,95979.75
2022-11-16T12:41:22.479Z,95984.38
2022-11-16T12:42:48.390Z,95982.94
2022-11-16T12:44:18.882Z,95976.06
2022-11-16T12:45:50.013Z,95971.03
2022-11-16T12:47:10.340Z,95973.72
2022-11-16T12:48:14.815Z,95972.59
2022-11-16T12:49:26.476Z,95974.91
2022-11-16T12:50:54.532Z,95965.22
2022-11-16T12:52:32.897Z,95966.00
2022-11-16T12:53:49.100Z,95969.81
2022-11-16T12:55:34.323Z,95964.41
2022-11-16T12:57:09.560Z,95969.03
2022-11-16T12:58:25.471Z,95969.03
2022-11-16T13:00:08.714Z,95959.81
2022-11-16T13:01:33.929Z,95959.03
2022-11-16T13:03:00.657Z,95964.44
2022-11-16T13:04:18.579Z,95962.97
2022-11-16T13:05:24.558Z,95961.44
2022-11-16T13:06:44.204Z,95949.06
2022-11-16T13:07:51.019Z,95966.41
2022-11-16T13:09:00.784Z,95956.03
2022-11-16T13:10:12.487Z,95954.50
2022-11-16T13:11:17.342Z,95954.22
2022-11-16T13:12:23.525Z,95956.50
2022-11-16T13:13:38.338Z,95948.47
2022-11-16T13:14:46.884Z,95954.22
2022-11-16T13:15:48.508Z,95949.25
2022-11-16T13:16:52.212Z,95947.69
2022-11-16T13:17:58.818Z,95949.97
2022-11-16T13:19:04.640Z,95948.44
2022-11-16T13:20:17.055Z,95946.16
2022-11-16T13:21:24.793Z,95946.19
2022-11-16T13:22:28.902Z,95946.19
2022-11-16T13:23:55.026Z,95950.81
2022-11-16T13:24:59.745Z,95958.50
2022-11-16T13:26:24.141Z,95944.63
2022-11-16T13:27:36.205Z,95946.19
2022-11-16T13:28:51.632Z,95946.94
2022-11-16T13:30:11.755Z,95950.44
2022-11-16T13:31:38.510Z,95946.59
2022-11-16T13:32:57.846Z,95945.00
2022-11-16T13:34:07.286Z,95936.13
2022-11-16T13:35:14.952Z,95936.13
2022-11-16T13:36:45.390Z,95942.28
2022-11-16T13:37:49.225Z,95939.97
2022-11-16T13:38:54.070Z,95934.94
2022-11-16T13:39:58.557Z,95944.59
2022-11-16T13:41:38.631Z,95936.91
2022-11-16T13:42:57.443Z,95941.16
2022-11-16T13:43:59.559Z,95938.47
2022-11-16T13:45:15.267Z,95933.84
2022-11-16T13:46:48.333Z,95942.31
2022-11-16T13:47:38.356Z,95944.63
2022-11-16T13:48:45.548Z,95935.41
2022-11-16T13:49:52.283Z,95933.06
2022-11-16T13:51:06.260Z,95932.28
2022-11-16T13:52:23.568Z,95930.72
2022-11-16T13:55:28.790Z,95938.47
2022-11-16T13:56:48.954Z,95946.97
2022-11-16T13:57:52.589Z,95944.63
2022-11-16T13:58:55.766Z,95945.00
2022-11-16T14:00:03.824Z,95941.94
2022-11-16T14:01:10.643Z,95942.69
2022-11-16T14:02:31.620Z,95941.16
2022-11-16T14:03:38.678Z,95940.78
2022-11-16T14:05:23.328Z,95941.97
2022-11-16T14:06:24.900Z,95944.69
2022-11-16T14:07:32.572Z,95947.41
2022-11-16T14:08:35.031Z,95940.84
2022-11-16T14:09:51.512Z,95937.00
2022-11-16T14:10:52.993Z,95938.94
2022-11-16T14:11:54.554Z,95928.53
2022-11-16T14:12:56.728Z,95937.41
2022-11-16T14:14:01.487Z,95933.16
2022-11-16T14:15:21.969Z,95935.09
2022-11-16T14:16:23.586Z,95928.56
2022-11-16T14:18:00.199Z,95918.53
2022-11-16T14:19:02.958Z,95925.13
2022-11-16T14:20:05.500Z,95927.78
2022-11-16T14:21:19.312Z,95923.16
2022-11-16T14:22:35.614Z,95915.81
2022-11-16T14:23:49.166Z,95923.13
2022-11-16T14:25:02.037Z,95919.22
2022-11-16T14:26:12.656Z,95918.06
2022-11-16T14:27:36.153Z,95920.75
2022-11-16T14:28:56.166Z,95918.06
2022-11-16T14:30:19.515Z,95915.38
2022-11-16T14:31:27.759Z,95916.16
2022-11-16T14:32:42.510Z,95909.19
2022-11-16T14:33:51.015Z,95910.38
2022-11-16T14:34:55.777Z,95910.00
2022-11-16T14:35:57.896Z,95910.75
2022-11-16T14:37:00.488Z,95908.41
2022-11-16T14:38:08.774Z,95913.03
2022-11-16T14:39:24.855Z,95911.47
2022-11-16T14:40:27.078Z,95913.81
2022-11-16T14:41:29.073Z,95915.38
2022-11-16T14:42:48.432Z,95915.38
2022-11-16T14:43:58.142Z,95915.41
2022-11-16T14:45:02.520Z,95911.56
2022-11-16T14:46:09.983Z,95916.91
2022-11-16T14:47:26.635Z,95918.06
2022-11-16T14:48:28.255Z,95913.03
2022-11-16T14:49:34.846Z,95909.94
2022-11-16T14:50:40.777Z,95909.91
2022-11-16T14:51:49.964Z,95906.38
2022-11-16T14:52:57.213Z,95910.63
2022-11-16T14:54:15.951Z,95908.66
2022-11-16T14:55:24.432Z,95912.91
2022-11-16T14:56:26.010Z,95912.19
2022-11-16T14:57:30.011Z,95912.19
2022-11-16T14:58:33.409Z,95905.97
2022-11-16T14:59:35.051Z,95905.97
2022-11-16T15:00:37.478Z,95907.50
2022-11-16T15:01:40.039Z,95902.13
2022-11-16T15:02:44.799Z,95908.28
2022-11-16T15:04:04.950Z,95905.97
2022-11-16T15:05:07.143Z,95902.47
2022-11-16T15:06:09.117Z,95900.53
2022-11-16T15:07:12.961Z,95902.44
2022-11-16T15:08:22.289Z,95902.84
2022-11-16T15:09:34.360Z,95894.72
2022-11-16T15:10:35.989Z,95898.94
2022-11-16T15:11:59.218Z,95897.75
2022-11-16T15:13:01.024Z,95889.66
2022-11-16T15:14:02.627Z,95893.91
2022-11-16T15:15:12.007Z,95896.59
2022-11-16T15:16:19.690Z,95893.16
2022-11-16T15:17:27.288Z,95888.91
2022-11-16T15:18:31.798Z,95894.28
2022-11-16T15:19:33.622Z,95892.78
2022-11-16T15:20:38.344Z,95881.22
2022-11-16T15:21:39.926Z,95888.16
2022-11-16T15:22:47.162Z,95886.25
2022-11-16T15:24:02.061Z,95890.88
2022-11-16T15:25:30.583Z,95881.63
2022-11-16T15:26:32.154Z,95886.63
2022-11-16T15:27:33.627Z,95881.63
2022-11-16T15:28:35.136Z,95882.78
2022-11-16T15:29:37.147Z,95875.84
2022-11-16T15:30:40.291Z,95882.38
2022-11-16T15:31:42.398Z,95885.84
2022-11-16T15:32:45.845Z,95883.56
2022-11-16T15:33:47.690Z,95886.25
2022-11-16T15:34:53.532Z,95882.41
2022-11-16T15:35:55.755Z,95882.78
2022-11-16T15:36:57.272Z,95878.16
2022-11-16T15:38:18.804Z,95888.59
2022-11-16T15:39:23.955Z,95881.28
2022-11-16T15:40:25.887Z,95882.84
2022-11-16T15:41:29.379Z,95889.78
2022-11-16T15:42:31.154Z,95889.78
2022-11-16T15:43:44.827Z,95895.16
2022-11-16T15:44:52.682Z,95885.53
2022-11-16T15:45:55.030Z,95891.34
2022-11-16T15:46:57.167Z,95890.19
2022-11-16T15:48:01.707Z,95887.56
2022-11-16T15:49:03.628Z,95886.41
2022-11-16T15:50:05.497Z,95882.59
2022-11-16T15:51:14.159Z,95883.69
2022-11-16T15:53:02.087Z,95883.66
2022-11-16T15:54:30.315Z,95883.25
2022-11-16T15:55:36.803Z,95883.63
2022-11-16T15:56:38.551Z,95887.47
2022-11-16T15:57:45.487Z,95885.16
2022-11-16T15:58:49.507Z,95883.25
2022-11-16T15:59:54.791Z,95886.72
2022-11-16T16:00:58.991Z,95879.00
2022-11-16T16:02:00.707Z,95886.31
2022-11-16T16:03:22.230Z,95886.31
2022-11-16T16:04:25.679Z,95884.38
2022-11-16T16:05:35.509Z,95882.06
2022-11-16T16:06:56.588Z,95882.06
2022-11-16T16:07:59.555Z,95877.03